»·PEaware :: N714TW KSBA-KBUR

N714TW :: KSBA-KBUR

FLIGHT INFORMATION

Flight Status: Arrived
Operator: Privately registered:
United States
More flights under this callsign
Pilot: Peter S. (23284)
Aircraft: CESSNA T210 TURBO CENTURION
(T210)
More flights by this aircraft type
Origin: KSBA Santa Barbara Mun
United States
Destination: KBUR Bob Hope-Burbank
United States
More flights between these airports :: More routes between these airports
Route:
File this flight plan on PilotEdge
Remarks: CAT8
Altitude:
(Current/Filed)
7,500ft
Speed:
(Current/Filed)
140kts
Departed: 09-Feb-19 09:00 PM
Arrived: 09-Feb-19 09:37 PM
Distance/Time
Traveled:
75nm/0:37
Distance/Time
To Go:
Arrived

Flight Plot

Page will automatically refresh every two minutes.


Map Options




Map Legend


Flown Route
Filed Route
Departure Airport
Arrival Airport
Navaid (VOR, NDB)
Fix

Horizontal Profiles

Position Reports

Time Latitude Longitude Heading Altitude Ground
Speed
09-Feb-19 20:52 34.431863 -119.837521 153 17ft 0kts
09-Feb-19 20:53 34.431863 -119.837521 153 17ft 0kts
09-Feb-19 20:54 34.431863 -119.837521 153 17ft 0kts
09-Feb-19 20:55 34.431863 -119.837521 153 17ft 0kts
09-Feb-19 20:56 34.431402 -119.837655 229 17ft 8kts
09-Feb-19 20:57 34.430003 -119.835357 180 17ft 26kts
09-Feb-19 20:58 34.428751 -119.835311 181 17ft 0kts
09-Feb-19 20:59 34.426992 -119.855531 265 234ft 105kts
09-Feb-19 21:00 34.425280 -119.891019 263 1195ft 130kts
09-Feb-19 21:01 34.420313 -119.937132 268 1528ft 141kts
09-Feb-19 21:02 34.400517 -119.939846 90 2735ft 131kts
09-Feb-19 21:03 34.402487 -119.897346 84 4126ft 119kts
09-Feb-19 21:04 34.405099 -119.856046 85 5453ft 117kts
09-Feb-19 21:05 34.410784 -119.815288 77 6649ft 120kts
09-Feb-19 21:06 34.415908 -119.772656 100 7428ft 146kts
09-Feb-19 21:07 34.406959 -119.716318 96 7344ft 167kts
09-Feb-19 21:08 34.400448 -119.659684 97 7453ft 159kts
09-Feb-19 21:09 34.393705 -119.603953 107 7464ft 158kts
09-Feb-19 21:10 34.385851 -119.549932 83 7535ft 159kts
09-Feb-19 21:11 34.376464 -119.496587 116 7526ft 158kts
09-Feb-19 21:12 34.367525 -119.441852 96 7556ft 159kts
09-Feb-19 21:13 34.359772 -119.384987 97 7370ft 166kts
09-Feb-19 21:14 34.352661 -119.342473 102 7462ft 160kts
09-Feb-19 21:15 34.345522 -119.286324 101 7481ft 161kts
09-Feb-19 21:16 34.334259 -119.232204 96 7504ft 161kts
09-Feb-19 21:17 34.326172 -119.177392 98 7537ft 160kts
09-Feb-19 21:18 34.319609 -119.122173 100 7538ft 162kts
09-Feb-19 21:19 34.309189 -119.067238 102 7538ft 161kts
09-Feb-19 21:20 34.301405 -119.014129 93 7537ft 162kts
09-Feb-19 21:21 34.292913 -118.959220 97 7495ft 161kts
09-Feb-19 21:22 34.282805 -118.905506 101 7484ft 161kts
09-Feb-19 21:23 34.277087 -118.852256 103 7290ft 157kts
09-Feb-19 21:24 34.266111 -118.799112 105 6451ft 159kts
09-Feb-19 21:25 34.254062 -118.747524 102 5502ft 152kts
09-Feb-19 21:26 34.242871 -118.700582 108 4927ft 142kts
09-Feb-19 21:27 34.231016 -118.656102 108 4435ft 138kts
09-Feb-19 21:28 34.219422 -118.615175 107 4033ft 135kts
09-Feb-19 21:29 34.210533 -118.570953 104 3534ft 136kts
09-Feb-19 21:30 34.201889 -118.527314 103 3346ft 133kts
09-Feb-19 21:31 34.199118 -118.486633 88 2715ft 103kts
09-Feb-19 21:32 34.198896 -118.455225 89 2192ft 92kts
09-Feb-19 21:33 34.198556 -118.424399 89 1666ft 90kts
09-Feb-19 21:34 34.198273 -118.398514 90 1392ft 76kts
09-Feb-19 21:35 34.197960 -118.374287 89 937ft 70kts
09-Feb-19 21:36 34.198552 -118.360224 1 781ft 0kts
09-Feb-19 21:37 34.198552 -118.360224 1 781ft 0kts
09-Feb-19 21:38 34.199862 -118.359517 57 781ft 12kts
09-Feb-19 21:39 34.200984 -118.359611 353 781ft 0kts
09-Feb-19 21:40 34.200984 -118.359611 353 781ft 0kts
09-Feb-19 21:41 34.200984 -118.359611 353 781ft 0kts
09-Feb-19 21:42 34.200984 -118.359611 353 781ft 0kts
09-Feb-19 21:43 34.200984 -118.359611 353 781ft 0kts
09-Feb-19 21:44 34.200984 -118.359611 353 781ft 0kts
09-Feb-19 21:45 34.200984 -118.359611 353 781ft 0kts
09-Feb-19 21:46 34.200984 -118.359611 353 781ft 0kts
09-Feb-19 21:47 34.200984 -118.359611 353 781ft 0kts
09-Feb-19 21:48 34.200984 -118.359611 353 781ft 0kts
09-Feb-19 21:49 34.200984 -118.359611 353 781ft 0kts
09-Feb-19 21:50 34.200984 -118.359611 353 781ft 0kts

Navigation Log

Ident Type
Flight plan parsing failed, navigation log unavailable